Time;durP1;ratioP1;P1;durP2;ratioP2;P2;SDS_P1;SDS_P2;PMS_P1;PMS_P2;Temp;Humidity;BMP_temperature;BMP_pressure;BME280_temperature;BME280_humidity;BME280_pressure;Samples;Min_cycle;Max_cycle;Signal;HPM_P1;HPM_P2
2022/02/14 00:01:09;;;;;;;;;;;;;;;;;;5105809;28;19912;-78
2022/02/14 00:03:35;;;;;;;;;;;;;;;;;;5095610;28;19974;-78
2022/02/14 00:06:00;;;;;;;;;;;;;;;;;;5096572;28;19916;-78
2022/02/14 00:08:26;;;;;;;;;;;;;;;;;;5096649;28;19926;-78
2022/02/14 00:10:51;;;;;;;;;;;;;;;;;;5096354;28;20019;-78
2022/02/14 00:13:16;;;;;;;;;;;;;;;;;;5096455;28;19924;-79
2022/02/14 00:15:43;;;;;;;;;;;;;;;;;;5095988;28;20330;-79
2022/02/14 00:18:08;;;;;;;;;;;;;;;;;;5099064;28;19916;-78
2022/02/14 00:20:33;;;;;;;;;;;;;;;;;;5100001;28;19927;-79
2022/02/14 00:22:59;;;;;;;;;;;;;;;;;;5100082;28;20265;-78
2022/02/14 00:25:24;;;;;;;;;;;;;;;;;;5098367;28;19916;-80
2022/02/14 00:27:50;;;;;;;;;;;;;;;;;;5098338;28;19922;-79
2022/02/14 00:30:15;;;;;;;;;;;;;;;;;;5096909;28;19924;-79
2022/02/14 00:32:42;;;;;;;;;;;;;;;;;;5080432;28;19917;-79
2022/02/14 00:35:10;;;;;;;;;;;;;;;;;;5080284;28;20007;-80
2022/02/14 00:37:36;;;;;;;;;;;;;;;;;;5080749;28;19917;-79
2022/02/14 00:40:03;;;;;;;;;;;;;;;;;;5080429;28;19922;-79
2022/02/14 00:42:28;;;;;;;;;;;;;;;;;;5080215;28;19979;-79
2022/02/14 00:44:55;;;;;;;;;;;;;;;;;;5080738;28;19922;-80
2022/02/14 00:47:20;;;;;;;;;;;;;;;;;;5083153;28;20002;-80
2022/02/14 00:49:46;;;;;;;;;;;;;;;;;;5080956;28;19921;-79
2022/02/14 00:52:14;;;;;;;;;;;;;;;;;;5079211;28;19932;-79
2022/02/14 00:54:40;;;;;;;;;;;;;;;;;;5080526;28;19916;-78
2022/02/14 00:57:05;;;;;;;;;;;;;;;;;;5081751;28;19979;-80
2022/02/14 00:59:31;;;;;;;;;;;;;;;;;;5079814;28;19916;-80
2022/02/14 01:01:58;;;;;;;;;;;;;;;;;;5114849;28;19922;-79
2022/02/14 01:04:23;;;;;;;;;;;;;;;;;;5119553;28;19983;-79
2022/02/14 01:06:48;;;;;;;;;;;;;;;;;;5120725;28;19958;-78
2022/02/14 01:09:14;;;;;;;;;;;;;;;;;;5120368;28;19920;-78
2022/02/14 01:11:39;;;;;;;;;;;;;;;;;;5120379;28;19974;-79
2022/02/14 01:14:05;;;;;;;;;;;;;;;;;;5120263;28;19915;-79
2022/02/14 01:16:30;;;;;;;;;;;;;;;;;;5118657;28;19919;-79
2022/02/14 01:18:56;;;;;;;;;;;;;;;;;;5119692;28;19916;-79
2022/02/14 01:21:21;;;;;;;;;;;;;;;;;;5119713;28;19922;-79
2022/02/14 01:23:46;;;;;;;;;;;;;;;;;;5119663;28;19970;-79
2022/02/14 01:26:12;;;;;;;;;;;;;;;;;;5119722;28;19916;-78
2022/02/14 01:28:37;;;;;;;;;;;;;;;;;;5118240;27;19916;-78
2022/02/14 01:31:02;;;;;;;;;;;;;;;;;;5109454;28;19923;-79
2022/02/14 01:33:28;;;;;;;;;;;;;;;;;;5096963;28;19923;-79
2022/02/14 01:35:53;;;;;;;;;;;;;;;;;;5097902;28;20137;-79
2022/02/14 01:38:18;;;;;;;;;;;;;;;;;;5098514;28;19970;-79
2022/02/14 01:40:43;;;;;;;;;;;;;;;;;;5097785;28;19927;-79
2022/02/14 01:43:11;;;;;;;;;;;;;;;;;;5096847;28;19916;-79
2022/02/14 01:45:36;;;;;;;;;;;;;;;;;;5098381;28;20381;-79
2022/02/14 01:48:01;;;;;;;;;;;;;;;;;;5098908;28;19922;-79
2022/02/14 01:50:27;;;;;;;;;;;;;;;;;;5098847;28;19927;-79
2022/02/14 01:52:54;;;;;;;;;;;;;;;;;;5098180;28;19916;-79
2022/02/14 01:55:19;;;;;;;;;;;;;;;;;;5098363;28;19919;-79
2022/02/14 01:57:48;;;;;;;;;;;;;;;;;;5100347;28;20335;-79
2022/02/14 02:00:16;;;;;;;;;;;;;;;;;;5096569;28;20019;-79
2022/02/14 02:02:41;;;;;;;;;;;;;;;;;;5077829;28;19971;-79
2022/02/14 02:05:07;;;;;;;;;;;;;;;;;;5077660;28;19955;-79
2022/02/14 02:07:32;;;;;;;;;;;;;;;;;;5077919;28;19916;-79
2022/02/14 02:09:58;;;;;;;;;;;;;;;;;;5077819;28;20294;-79
2022/02/14 02:12:23;;;;;;;;;;;;;;;;;;5077669;28;20185;-80
2022/02/14 02:14:57;;;;;;;;;;;;;;;;;;5079669;28;19912;-80
2022/02/14 02:17:23;;;;;;;;;;;;;;;;;;5082269;28;19916;-80
2022/02/14 02:19:48;;;;;;;;;;;;;;;;;;5081676;28;19944;-79
2022/02/14 02:22:14;;;;;;;;;;;;;;;;;;5080429;28;19927;-81
2022/02/14 02:24:46;;;;;;;;;;;;;;;;;;5080593;28;19917;-80
2022/02/14 02:27:12;;;;;;;;;;;;;;;;;;5079969;28;19917;-80
2022/02/14 02:29:37;;;;;;;;;;;;;;;;;;5078218;28;19975;-80
2022/02/14 02:32:03;;;;;;;;;;;;;;;;;;5097775;28;20080;-80
2022/02/14 02:34:28;;;;;;;;;;;;;;;;;;5099501;28;19923;-80
2022/02/14 02:36:55;;;;;;;;;;;;;;;;;;5099930;28;20385;-79
2022/02/14 02:39:20;;;;;;;;;;;;;;;;;;5099057;28;20007;-79
2022/02/14 02:41:46;;;;;;;;;;;;;;;;;;5098776;28;19970;-79
2022/02/14 02:44:12;;;;;;;;;;;;;;;;;;5099047;28;20285;-79
2022/02/14 02:46:38;;;;;;;;;;;;;;;;;;5099421;28;20446;-80
2022/02/14 02:49:13;;;;;;;;;;;;;;;;;;5098801;28;19920;-79
2022/02/14 02:51:39;;;;;;;;;;;;;;;;;;5097780;28;19920;-79
2022/02/14 02:54:04;;;;;;;;;;;;;;;;;;5098693;28;20298;-80
2022/02/14 02:56:30;;;;;;;;;;;;;;;;;;5098405;28;19923;-79
2022/02/14 02:58:55;;;;;;;;;;;;;;;;;;5098927;28;19916;-79
2022/02/14 03:01:20;;;;;;;;;;;;;;;;;;5111127;28;19919;-79
2022/02/14 03:03:47;;;;;;;;;;;;;;;;;;5118489;28;20002;-79
2022/02/14 03:06:12;;;;;;;;;;;;;;;;;;5118191;28;19916;-79
2022/02/14 03:08:38;;;;;;;;;;;;;;;;;;5117154;28;19926;-80
2022/02/14 03:11:03;;;;;;;;;;;;;;;;;;5119211;28;19924;-79
2022/02/14 03:13:28;;;;;;;;;;;;;;;;;;5118470;28;20010;-79
2022/02/14 03:15:54;;;;;;;;;;;;;;;;;;5117984;28;19971;-81
2022/02/14 03:18:19;;;;;;;;;;;;;;;;;;5118557;28;20015;-80
2022/02/14 03:20:44;;;;;;;;;;;;;;;;;;5117188;28;19915;-78
2022/02/14 03:23:10;;;;;;;;;;;;;;;;;;5116223;28;19915;-78
2022/02/14 03:25:35;;;;;;;;;;;;;;;;;;5116736;28;19922;-78
2022/02/14 03:28:00;;;;;;;;;;;;;;;;;;5116514;28;19938;-78
2022/02/14 03:30:26;;;;;;;;;;;;;;;;;;5112326;28;20019;-78
2022/02/14 03:32:51;;;;;;;;;;;;;;;;;;5096635;28;19923;-81
2022/02/14 03:35:17;;;;;;;;;;;;;;;;;;5095702;28;20403;-80
2022/02/14 03:37:42;;;;;;;;;;;;;;;;;;5096060;28;19923;-80
2022/02/14 03:40:08;;;;;;;;;;;;;;;;;;5097709;28;19938;-80
2022/02/14 03:42:33;;;;;;;;;;;;;;;;;;5095964;28;19958;-81
2022/02/14 03:44:58;;;;;;;;;;;;;;;;;;5095683;28;19916;-81
2022/02/14 03:47:24;;;;;;;;;;;;;;;;;;5097405;28;19920;-82
2022/02/14 03:49:49;;;;;;;;;;;;;;;;;;5100407;28;19924;-82
2022/02/14 03:52:14;;;;;;;;;;;;;;;;;;5100878;28;19924;-82
2022/02/14 03:54:40;;;;;;;;;;;;;;;;;;5103570;28;19915;-81
2022/02/14 03:57:05;;;;;;;;;;;;;;;;;;5101660;28;19920;-80
2022/02/14 03:59:31;;;;;;;;;;;;;;;;;;5101543;28;19916;-82
2022/02/14 04:01:56;;;;;;;;;;;;;;;;;;5101555;28;19916;-80
2022/02/14 04:04:21;;;;;;;;;;;;;;;;;;5101983;28;19924;-79
2022/02/14 04:06:47;;;;;;;;;;;;;;;;;;5101748;28;20384;-80
2022/02/14 04:09:12;;;;;;;;;;;;;;;;;;5102050;28;19916;-79
2022/02/14 04:11:37;;;;;;;;;;;;;;;;;;5102451;28;19970;-79
2022/02/14 04:14:02;;;;;;;;;;;;;;;;;;5101936;28;19922;-79
2022/02/14 04:16:28;;;;;;;;;;;;;;;;;;5102420;28;20006;-78
2022/02/14 04:18:53;;;;;;;;;;;;;;;;;;5100791;28;20327;-78
2022/02/14 04:21:19;;;;;;;;;;;;;;;;;;5100256;28;19916;-79
2022/02/14 04:23:44;;;;;;;;;;;;;;;;;;5099738;28;19920;-79
2022/02/14 04:26:09;;;;;;;;;;;;;;;;;;5100672;28;19916;-78
2022/02/14 04:28:34;;;;;;;;;;;;;;;;;;5101256;28;19916;-78
2022/02/14 04:31:00;;;;;;;;;;;;;;;;;;5090114;28;19920;-79
2022/02/14 04:33:25;;;;;;;;;;;;;;;;;;5080490;28;19912;-79
2022/02/14 04:35:50;;;;;;;;;;;;;;;;;;5081059;28;19930;-79
2022/02/14 04:38:16;;;;;;;;;;;;;;;;;;5081313;28;20015;-79
2022/02/14 04:40:41;;;;;;;;;;;;;;;;;;5084089;28;20022;-79
2022/02/14 04:43:06;;;;;;;;;;;;;;;;;;5080824;28;19916;-78
2022/02/14 04:45:32;;;;;;;;;;;;;;;;;;5079830;28;20396;-78
2022/02/14 04:47:58;;;;;;;;;;;;;;;;;;5080442;28;20324;-78
2022/02/14 04:50:23;;;;;;;;;;;;;;;;;;5080895;28;19927;-79
2022/02/14 04:52:49;;;;;;;;;;;;;;;;;;5080219;28;19917;-79
2022/02/14 04:55:14;;;;;;;;;;;;;;;;;;5079536;28;19927;-78
2022/02/14 04:57:40;;;;;;;;;;;;;;;;;;5079466;28;20368;-79
2022/02/14 05:00:06;;;;;;;;;;;;;;;;;;5079291;28;19916;-79
2022/02/14 05:02:32;;;;;;;;;;;;;;;;;;5084189;28;19917;-78
2022/02/14 05:04:57;;;;;;;;;;;;;;;;;;5091421;28;19926;-79
2022/02/14 05:07:26;;;;;;;;;;;;;;;;;;5082745;28;19924;-80
2022/02/14 05:09:51;;;;;;;;;;;;;;;;;;5067212;28;19924;-78
2022/02/14 05:12:17;;;;;;;;;;;;;;;;;;5088077;28;20404;-79
2022/02/14 05:14:44;;;;;;;;;;;;;;;;;;5085635;28;20337;-78
2022/02/14 05:17:10;;;;;;;;;;;;;;;;;;5089645;28;19969;-78
2022/02/14 05:19:35;;;;;;;;;;;;;;;;;;5087962;28;20316;-80
2022/02/14 05:22:00;;;;;;;;;;;;;;;;;;5078698;28;20007;-79
2022/02/14 05:24:26;;;;;;;;;;;;;;;;;;5076761;28;20339;-78
2022/02/14 05:26:51;;;;;;;;;;;;;;;;;;5077312;28;20334;-78
2022/02/14 05:29:16;;;;;;;;;;;;;;;;;;5077750;28;19921;-78
2022/02/14 05:31:42;;;;;;;;;;;;;;;;;;5093842;28;19916;-79
2022/02/14 05:34:07;;;;;;;;;;;;;;;;;;5098749;28;19923;-79
2022/02/14 05:36:32;;;;;;;;;;;;;;;;;;5098717;28;20297;-79
2022/02/14 05:38:58;;;;;;;;;;;;;;;;;;5099609;28;19916;-78
2022/02/14 05:41:23;;;;;;;;;;;;;;;;;;5099530;28;19923;-78
2022/02/14 05:43:48;;;;;;;;;;;;;;;;;;5099420;28;19955;-78
2022/02/14 05:46:14;;;;;;;;;;;;;;;;;;5099781;28;19920;-78
2022/02/14 05:48:43;;;;;;;;;;;;;;;;;;5097493;28;19966;-81
2022/02/14 05:51:09;;;;;;;;;;;;;;;;;;5097528;28;19928;-79
2022/02/14 05:53:35;;;;;;;;;;;;;;;;;;5097838;28;20410;-78
2022/02/14 05:56:00;;;;;;;;;;;;;;;;;;5098066;28;19966;-79
2022/02/14 05:58:25;;;;;;;;;;;;;;;;;;5099594;28;20357;-78
2022/02/14 06:00:51;;;;;;;;;;;;;;;;;;5072305;28;19923;-79
2022/02/14 06:03:16;;;;;;;;;;;;;;;;;;5078810;28;20328;-78
2022/02/14 06:05:42;;;;;;;;;;;;;;;;;;5078635;28;19916;-78
2022/02/14 06:08:07;;;;;;;;;;;;;;;;;;5078833;28;19922;-79
2022/02/14 06:10:33;;;;;;;;;;;;;;;;;;5078597;28;20025;-78
2022/02/14 06:12:58;;;;;;;;;;;;;;;;;;5077304;28;19940;-80
2022/02/14 06:15:23;;;;;;;;;;;;;;;;;;5075965;28;19920;-79
2022/02/14 06:17:48;;;;;;;;;;;;;;;;;;5078720;28;19916;-78
2022/02/14 06:20:15;;;;;;;;;;;;;;;;;;5079055;28;19980;-79
2022/02/14 06:22:40;;;;;;;;;;;;;;;;;;5079078;28;20274;-78
2022/02/14 06:25:06;;;;;;;;;;;;;;;;;;5078215;28;19923;-78
2022/02/14 06:27:31;;;;;;;;;;;;;;;;;;5078130;28;19917;-79
2022/02/14 06:29:56;;;;;;;;;;;;;;;;;;5077861;28;19971;-79
2022/02/14 06:32:21;;;;;;;;;;;;;;;;;;5077516;28;19922;-79
2022/02/14 06:34:47;;;;;;;;;;;;;;;;;;5078274;28;19946;-79
2022/02/14 06:37:12;;;;;;;;;;;;;;;;;;5078190;28;19920;-78
2022/02/14 06:39:38;;;;;;;;;;;;;;;;;;5088651;28;19916;-78
2022/02/14 06:42:03;;;;;;;;;;;;;;;;;;5089049;28;20318;-80
2022/02/14 06:44:28;;;;;;;;;;;;;;;;;;5097625;28;19922;-81
2022/02/14 06:46:54;;;;;;;;;;;;;;;;;;5097892;28;20396;-82
2022/02/14 06:49:19;;;;;;;;;;;;;;;;;;5096486;28;19920;-80
2022/02/14 06:51:45;;;;;;;;;;;;;;;;;;5098856;28;19920;-80
2022/02/14 06:54:10;;;;;;;;;;;;;;;;;;5097389;28;19923;-78
2022/02/14 06:56:35;;;;;;;;;;;;;;;;;;5094674;28;19923;-78
2022/02/14 06:59:01;;;;;;;;;;;;;;;;;;5095929;28;19959;-78
2022/02/14 07:01:26;;;;;;;;;;;;;;;;;;5084789;28;20289;-79
2022/02/14 07:03:52;;;;;;;;;;;;;;;;;;5074653;28;19916;-79
2022/02/14 07:06:17;;;;;;;;;;;;;;;;;;5075836;28;19917;-81
2022/02/14 07:08:44;;;;;;;;;;;;;;;;;;5078356;28;19920;-81
2022/02/14 07:11:09;;;;;;;;;;;;;;;;;;5077643;28;19916;-80
2022/02/14 07:13:34;;;;;;;;;;;;;;;;;;5078079;28;19923;-80
2022/02/14 07:16:00;;;;;;;;;;;;;;;;;;5077099;28;20425;-80
2022/02/14 07:18:25;;;;;;;;;;;;;;;;;;5077501;28;20004;-80
2022/02/14 07:20:51;;;;;;;;;;;;;;;;;;5077169;28;19919;-80
2022/02/14 07:23:16;;;;;;;;;;;;;;;;;;5080002;28;19924;-80
2022/02/14 07:25:42;;;;;;;;;;;;;;;;;;5075035;28;20261;-80
2022/02/14 07:28:07;;;;;;;;;;;;;;;;;;5077074;28;19970;-80
2022/02/14 07:30:33;;;;;;;;;;;;;;;;;;5058273;28;19920;-80
2022/02/14 07:32:58;;;;;;;;;;;;;;;;;;5076843;28;19923;-80
2022/02/14 07:35:23;;;;;;;;;;;;;;;;;;5076312;28;19955;-80
2022/02/14 07:37:48;;;;;;;;;;;;;;;;;;5075452;28;19916;-80
2022/02/14 07:40:15;;;;;;;;;;;;;;;;;;5077571;28;19927;-80
2022/02/14 07:42:41;;;;;;;;;;;;;;;;;;5077719;28;20003;-81
2022/02/14 07:45:06;;;;;;;;;;;;;;;;;;5076881;28;20009;-80
2022/02/14 07:47:32;;;;;;;;;;;;;;;;;;5086875;28;19916;-80
2022/02/14 07:49:57;;;;;;;;;;;;;;;;;;5088533;28;19924;-80
2022/02/14 07:52:23;;;;;;;;;;;;;;;;;;5093981;28;20385;-80
2022/02/14 07:54:49;;;;;;;;;;;;;;;;;;5087537;28;20281;-80
2022/02/14 07:57:14;;;;;;;;;;;;;;;;;;5101853;28;19964;-81
2022/02/14 07:59:39;;;;;;;;;;;;;;;;;;5101452;28;19916;-86
2022/02/14 08:02:04;;;;;;;;;;;;;;;;;;5092978;28;19965;-85
2022/02/14 08:04:30;;;;;;;;;;;;;;;;;;5079313;28;19923;-81
2022/02/14 08:06:55;;;;;;;;;;;;;;;;;;5085779;28;20337;-79
2022/02/14 08:09:20;;;;;;;;;;;;;;;;;;5098245;28;20011;-82
2022/02/14 08:11:46;;;;;;;;;;;;;;;;;;5098909;28;19928;-82
2022/02/14 08:14:13;;;;;;;;;;;;;;;;;;5096819;28;19916;-81
2022/02/14 08:16:39;;;;;;;;;;;;;;;;;;5098827;28;19922;-84
2022/02/14 08:19:04;;;;;;;;;;;;;;;;;;5100936;28;19920;-86
2022/02/14 08:21:31;;;;;;;;;;;;;;;;;;5101432;28;19919;-84
2022/02/14 08:23:57;;;;;;;;;;;;;;;;;;5102120;28;20419;-82
2022/02/14 08:26:23;;;;;;;;;;;;;;;;;;5098628;28;20297;-83
2022/02/14 08:28:49;;;;;;;;;;;;;;;;;;5097662;28;19916;-83
2022/02/14 08:31:15;;;;;;;;;;;;;;;;;;5102244;28;19923;-85
2022/02/14 08:33:40;;;;;;;;;;;;;;;;;;5102890;28;19951;-83
2022/02/14 08:36:05;;;;;;;;;;;;;;;;;;5080705;28;19923;-82
2022/02/14 08:38:31;;;;;;;;;;;;;;;;;;5101841;28;19916;-82
2022/02/14 08:40:57;;;;;;;;;;;;;;;;;;5103775;28;19939;-82
2022/02/14 08:43:22;;;;;;;;;;;;;;;;;;5106010;28;19923;-83
2022/02/14 08:45:47;;;;;;;;;;;;;;;;;;5106494;28;19916;-83
2022/02/14 08:48:13;;;;;;;;;;;;;;;;;;5106029;28;20014;-82
2022/02/14 08:50:40;;;;;;;;;;;;;;;;;;5106100;28;19920;-82
2022/02/14 08:53:06;;;;;;;;;;;;;;;;;;5104345;28;19965;-83
2022/02/14 08:55:31;;;;;;;;;;;;;;;;;;5105811;28;19979;-82
2022/02/14 08:57:57;;;;;;;;;;;;;;;;;;5105985;28;19920;-82
2022/02/14 09:00:22;;;;;;;;;;;;;;;;;;5102540;28;19923;-81
2022/02/14 09:02:47;;;;;;;;;;;;;;;;;;5091970;28;19956;-81
2022/02/14 09:05:14;;;;;;;;;;;;;;;;;;5083974;28;20324;-82
2022/02/14 09:07:40;;;;;;;;;;;;;;;;;;5085100;28;19917;-82
2022/02/14 09:10:06;;;;;;;;;;;;;;;;;;5082457;28;19924;-83
2022/02/14 09:12:31;;;;;;;;;;;;;;;;;;5083347;28;19962;-82
2022/02/14 09:14:57;;;;;;;;;;;;;;;;;;5083508;28;20421;-82
2022/02/14 09:17:25;;;;;;;;;;;;;;;;;;5081227;28;19916;-81
2022/02/14 09:19:50;;;;;;;;;;;;;;;;;;5083800;28;20293;-82
2022/02/14 09:22:15;;;;;;;;;;;;;;;;;;5082450;28;19958;-79
2022/02/14 09:24:41;;;;;;;;;;;;;;;;;;5100535;28;19923;-78
2022/02/14 09:27:06;;;;;;;;;;;;;;;;;;5095757;28;19923;-77
2022/02/14 09:29:32;;;;;;;;;;;;;;;;;;5097312;28;19923;-79
2022/02/14 09:31:57;;;;;;;;;;;;;;;;;;5102325;28;19980;-82
2022/02/14 09:34:23;;;;;;;;;;;;;;;;;;5082514;28;19916;-80
2022/02/14 09:36:52;;;;;;;;;;;;;;;;;;5103335;28;19916;-79
2022/02/14 09:39:18;;;;;;;;;;;;;;;;;;5100069;28;19943;-82
2022/02/14 09:41:43;;;;;;;;;;;;;;;;;;5101522;28;19916;-80
2022/02/14 09:44:08;;;;;;;;;;;;;;;;;;5100773;28;19916;-79
2022/02/14 09:46:37;;;;;;;;;;;;;;;;;;5100950;28;19995;-79
2022/02/14 09:49:03;;;;;;;;;;;;;;;;;;5098993;28;19920;-79
2022/02/14 09:51:29;;;;;;;;;;;;;;;;;;5097061;28;19970;-78
2022/02/14 09:53:55;;;;;;;;;;;;;;;;;;5097491;28;19920;-80
2022/02/14 09:56:22;;;;;;;;;;;;;;;;;;5100529;28;19924;-79
2022/02/14 09:58:48;;;;;;;;;;;;;;;;;;5100472;28;19959;-80
2022/02/14 10:01:13;;;;;;;;;;;;;;;;;;5100195;28;19916;-81
2022/02/14 10:03:48;;;;;;;;;;;;;;;;;;5101055;28;19916;-80
2022/02/14 10:06:23;;;;;;;;;;;;;;;;;;5100329;28;19955;-79
2022/02/14 10:09:03;;;;;;;;;;;;;;;;;;5097883;28;20010;-79
2022/02/14 10:11:28;;;;;;;;;;;;;;;;;;5096532;28;20270;-80
2022/02/14 10:13:54;;;;;;;;;;;;;;;;;;5100013;28;19920;-79
2022/02/14 10:16:20;;;;;;;;;;;;;;;;;;5099781;28;19923;-80
2022/02/14 10:18:46;;;;;;;;;;;;;;;;;;5098497;28;19947;-79
2022/02/14 10:21:17;;;;;;;;;;;;;;;;;;5099024;28;19924;-80
2022/02/14 10:24:07;;;;;;;;;;;;;;;;;;5096656;28;19920;-78
2022/02/14 10:26:32;;;;;;;;;;;;;;;;;;5089087;28;19920;-80
2022/02/14 10:28:57;;;;;;;;;;;;;;;;;;5096828;28;19969;-78
2022/02/14 10:31:23;;;;;;;;;;;;;;;;;;5096214;28;19912;-78
2022/02/14 10:33:50;;;;;;;;;;;;;;;;;;5096246;28;20004;-76
2022/02/14 10:36:23;;;;;;;;;;;;;;;;;;5095296;28;20438;-75
2022/02/14 10:38:48;;;;;;;;;;;;;;;;;;5095583;28;19935;-78
2022/02/14 10:41:14;;;;;;;;;;;;;;;;;;5096274;28;20317;-78
2022/02/14 10:43:40;;;;;;;;;;;;;;;;;;5095248;28;20004;-76
2022/02/14 10:46:05;;;;;;;;;;;;;;;;;;5094832;28;20404;-76
2022/02/14 10:48:37;;;;;;;;;;;;;;;;;;5095294;28;19998;-78
2022/02/14 10:51:03;;;;;;;;;;;;;;;;;;5095585;28;20377;-75
2022/02/14 10:53:29;;;;;;;;;;;;;;;;;;5095130;28;19923;-78
2022/02/14 10:55:58;;;;;;;;;;;;;;;;;;5094810;28;19916;-78
2022/02/14 10:58:27;;;;;;;;;;;;;;;;;;5095881;28;19916;-78
2022/02/14 11:00:54;;;;;;;;;;;;;;;;;;5093553;28;19916;-78
2022/02/14 11:03:20;;;;;;;;;;;;;;;;;;5094556;28;19920;-78
2022/02/14 11:05:47;;;;;;;;;;;;;;;;;;5095120;28;19923;-75
2022/02/14 11:08:13;;;;;;;;;;;;;;;;;;5094493;28;19951;-78
2022/02/14 11:10:41;;;;;;;;;;;;;;;;;;5094453;28;20285;-78
2022/02/14 11:13:07;;;;;;;;;;;;;;;;;;5095616;28;20002;-78
2022/02/14 11:15:34;;;;;;;;;;;;;;;;;;5095299;28;20352;-79
2022/02/14 11:17:59;;;;;;;;;;;;;;;;;;5096896;28;19916;-79
2022/02/14 11:20:25;;;;;;;;;;;;;;;;;;5096822;28;20014;-79
2022/02/14 11:22:50;;;;;;;;;;;;;;;;;;5097254;28;19912;-79
2022/02/14 11:25:35;;;;;;;;;;;;;;;;;;5099544;28;19916;-79
2022/02/14 11:28:06;;;;;;;;;;;;;;;;;;5099784;28;20026;-79
2022/02/14 11:30:32;;;;;;;;;;;;;;;;;;5099766;28;20286;-79
2022/02/14 11:33:05;;;;;;;;;;;;;;;;;;5099050;28;19916;-78
2022/02/14 11:35:30;;;;;;;;;;;;;;;;;;5098876;28;19916;-79
2022/02/14 11:37:58;;;;;;;;;;;;;;;;;;5097611;28;19916;-78
2022/02/14 11:40:40;;;;;;;;;;;;;;;;;;5096895;28;20029;-79
2022/02/14 11:43:08;;;;;;;;;;;;;;;;;;5098254;28;20015;-79
2022/02/14 11:45:34;;;;;;;;;;;;;;;;;;5097462;28;19916;-79
2022/02/14 11:48:18;;;;;;;;;;;;;;;;;;5098367;28;19916;-79
2022/02/14 11:50:43;;;;;;;;;;;;;;;;;;5096970;28;20005;-78
2022/02/14 11:53:47;;;;;;;;;;;;;;;;;;5097659;28;20297;-78
2022/02/14 11:56:22;;;;;;;;;;;;;;;;;;5035247;28;19917;-78
2022/02/14 11:59:01;;;;;;;;;;;;;;;;;;5034715;28;19948;-78
2022/02/14 12:01:29;;;;;;;;;;;;;;;;;;5073304;28;19916;-78
2022/02/14 12:04:13;;;;;;;;;;;;;;;;;;5097290;28;19919;-78
2022/02/14 12:06:59;;;;;;;;;;;;;;;;;;5096930;28;19975;-78
2022/02/14 12:09:24;;;;;;;;;;;;;;;;;;5097108;28;20346;-78
2022/02/14 12:11:49;;;;;;;;;;;;;;;;;;5097354;28;19924;-78
2022/02/14 12:14:15;;;;;;;;;;;;;;;;;;5099535;28;19920;-78
2022/02/14 12:22:28;;;;;;;;;;;;;;;;;;5099777;28;19916;-78
2022/02/14 12:24:58;;;;;;;;;;;;;;;;;;5098238;28;20418;-78
2022/02/14 12:27:24;;;;;;;;;;;;;;;;;;5101468;28;19916;-81
2022/02/14 12:29:50;;;;;;;;;;;;;;;;;;5100397;28;19920;-79
2022/02/14 12:32:17;;;;;;;;;;;;;;;;;;5098836;28;19916;-78
2022/02/14 12:34:43;;;;;;;;;;;;;;;;;;5098424;28;19955;-77
2022/02/14 12:37:11;;;;;;;;;;;;;;;;;;5098298;28;19969;-78
2022/02/14 12:39:37;;;;;;;;;;;;;;;;;;5098436;28;19962;-77
2022/02/14 12:42:17;;;;;;;;;;;;;;;;;;5097268;28;19916;-76
2022/02/14 12:44:42;;;;;;;;;;;;;;;;;;5096672;28;20403;-76
2022/02/14 12:47:08;;;;;;;;;;;;;;;;;;5096750;28;19920;-76
2022/02/14 12:49:34;;;;;;;;;;;;;;;;;;5095761;28;20442;-76
2022/02/14 12:52:14;;;;;;;;;;;;;;;;;;5096669;28;19974;-76
2022/02/14 12:54:49;;;;;;;;;;;;;;;;;;5096811;28;19920;-76
2022/02/14 12:57:15;;;;;;;;;;;;;;;;;;5095728;28;19955;-77
2022/02/14 12:59:40;;;;;;;;;;;;;;;;;;5096829;28;19923;-77
2022/02/14 13:02:05;;;;;;;;;;;;;;;;;;5094426;28;19923;-76
2022/02/14 13:04:31;;;;;;;;;;;;;;;;;;5096786;28;19923;-76
2022/02/14 13:06:56;;;;;;;;;;;;;;;;;;5096822;28;19927;-76
2022/02/14 13:09:25;;;;;;;;;;;;;;;;;;5096180;28;19920;-76
2022/02/14 13:11:54;;;;;;;;;;;;;;;;;;5096675;28;19916;-76
2022/02/14 13:14:26;;;;;;;;;;;;;;;;;;5097483;28;19923;-76
2022/02/14 13:16:51;;;;;;;;;;;;;;;;;;5096460;28;19919;-76
2022/02/14 13:19:17;;;;;;;;;;;;;;;;;;5094057;28;20362;-76
2022/02/14 13:21:43;;;;;;;;;;;;;;;;;;5096291;28;20434;-76
2022/02/14 13:24:16;;;;;;;;;;;;;;;;;;5095709;28;19916;-76
2022/02/14 13:26:42;;;;;;;;;;;;;;;;;;5095790;28;19916;-76
2022/02/14 13:29:07;;;;;;;;;;;;;;;;;;5094945;28;19951;-76
2022/02/14 13:31:32;;;;;;;;;;;;;;;;;;5094051;28;20309;-77
2022/02/14 13:34:01;;;;;;;;;;;;;;;;;;5096335;28;20006;-76
2022/02/14 13:36:26;;;;;;;;;;;;;;;;;;5096412;28;19916;-78
2022/02/14 13:38:54;;;;;;;;;;;;;;;;;;5096185;28;20369;-77
2022/02/14 13:41:26;;;;;;;;;;;;;;;;;;5096571;28;19928;-77
2022/02/14 13:43:52;;;;;;;;;;;;;;;;;;5096866;28;19923;-77
2022/02/14 13:46:26;;;;;;;;;;;;;;;;;;5095968;28;19916;-79
2022/02/14 13:48:51;;;;;;;;;;;;;;;;;;5099113;28;19920;-77
2022/02/14 13:51:18;;;;;;;;;;;;;;;;;;5097154;28;20312;-79
2022/02/14 13:53:51;;;;;;;;;;;;;;;;;;5096348;28;20374;-79
2022/02/14 13:56:19;;;;;;;;;;;;;;;;;;5096576;28;19938;-79
2022/02/14 13:58:45;;;;;;;;;;;;;;;;;;5098004;28;19923;-79
2022/02/14 14:01:24;;;;;;;;;;;;;;;;;;5097262;28;19920;-79
2022/02/14 14:03:50;;;;;;;;;;;;;;;;;;5097949;28;20020;-79
2022/02/14 14:06:23;;;;;;;;;;;;;;;;;;5097219;28;20385;-78
2022/02/14 14:08:48;;;;;;;;;;;;;;;;;;5097523;28;19920;-78
2022/02/14 14:11:30;;;;;;;;;;;;;;;;;;5098126;28;19923;-78
2022/02/14 14:13:55;;;;;;;;;;;;;;;;;;5098305;28;19973;-79
2022/02/14 14:16:21;;;;;;;;;;;;;;;;;;5098188;28;20018;-78
2022/02/14 14:18:47;;;;;;;;;;;;;;;;;;5097909;28;19916;-79
2022/02/14 14:21:14;;;;;;;;;;;;;;;;;;5101478;28;20002;-79
2022/02/14 14:23:40;;;;;;;;;;;;;;;;;;5107754;28;19916;-79
2022/02/14 14:26:06;;;;;;;;;;;;;;;;;;5104512;28;19927;-79
2022/02/14 14:28:32;;;;;;;;;;;;;;;;;;5108382;28;19923;-79
2022/02/14 14:30:57;;;;;;;;;;;;;;;;;;5123062;28;19923;-80
2022/02/14 14:33:23;;;;;;;;;;;;;;;;;;5113978;28;19915;-79
2022/02/14 14:35:48;;;;;;;;;;;;;;;;;;5129808;28;19922;-79
2022/02/14 14:38:14;;;;;;;;;;;;;;;;;;5130147;28;20319;-79
2022/02/14 14:40:39;;;;;;;;;;;;;;;;;;5123466;28;19927;-77
2022/02/14 14:43:05;;;;;;;;;;;;;;;;;;5114239;28;19926;-77
2022/02/14 14:45:31;;;;;;;;;;;;;;;;;;5115644;28;19923;-77
2022/02/14 14:47:56;;;;;;;;;;;;;;;;;;5115482;28;19915;-77
2022/02/14 14:50:22;;;;;;;;;;;;;;;;;;5115179;28;19920;-77
2022/02/14 14:52:49;;;;;;;;;;;;;;;;;;5115040;28;20006;-77
2022/02/14 14:55:14;;;;;;;;;;;;;;;;;;5113895;28;20384;-77
2022/02/14 14:57:40;;;;;;;;;;;;;;;;;;5115096;28;19946;-77
2022/02/14 15:00:06;;;;;;;;;;;;;;;;;;5112886;28;19968;-77
2022/02/14 15:02:32;;;;;;;;;;;;;;;;;;5094685;28;19922;-77
2022/02/14 15:04:59;;;;;;;;;;;;;;;;;;5094540;28;20293;-77
2022/02/14 15:07:26;;;;;;;;;;;;;;;;;;5094720;28;20014;-77
2022/02/14 15:09:52;;;;;;;;;;;;;;;;;;5094558;28;19920;-77
2022/02/14 15:12:17;;;;;;;;;;;;;;;;;;5093279;28;20343;-77
2022/02/14 15:14:43;;;;;;;;;;;;;;;;;;5094595;28;19916;-77
2022/02/14 15:17:09;;;;;;;;;;;;;;;;;;5094254;28;20443;-77
2022/02/14 15:19:36;;;;;;;;;;;;;;;;;;5094230;28;19927;-77
2022/02/14 15:22:02;;;;;;;;;;;;;;;;;;5094241;28;19923;-77
2022/02/14 15:24:27;;;;;;;;;;;;;;;;;;5094243;28;19912;-77
2022/02/14 15:26:52;;;;;;;;;;;;;;;;;;5094316;28;19937;-77
2022/02/14 15:29:18;;;;;;;;;;;;;;;;;;5094170;28;20285;-77
2022/02/14 15:31:44;;;;;;;;;;;;;;;;;;5093972;28;19923;-77
2022/02/14 15:34:09;;;;;;;;;;;;;;;;;;5094113;28;20008;-77
2022/02/14 15:36:37;;;;;;;;;;;;;;;;;;5101287;28;20342;-78
2022/02/14 15:39:03;;;;;;;;;;;;;;;;;;5105016;28;19916;-77
2022/02/14 15:41:28;;;;;;;;;;;;;;;;;;5104057;28;19923;-78
2022/02/14 15:43:53;;;;;;;;;;;;;;;;;;5103393;28;19923;-77
2022/02/14 15:46:19;;;;;;;;;;;;;;;;;;5103312;28;19923;-78
2022/02/14 15:48:45;;;;;;;;;;;;;;;;;;5101761;28;19920;-78
2022/02/14 15:51:12;;;;;;;;;;;;;;;;;;5103448;28;19920;-78
2022/02/14 15:53:38;;;;;;;;;;;;;;;;;;5103877;28;19930;-78
2022/02/14 15:56:03;;;;;;;;;;;;;;;;;;5101536;28;20409;-77
2022/02/14 15:58:30;;;;;;;;;;;;;;;;;;5104135;28;19916;-78
2022/02/14 16:00:56;;;;;;;;;;;;;;;;;;5104932;28;19916;-78
2022/02/14 16:03:21;;;;;;;;;;;;;;;;;;5109812;28;19920;-78
2022/02/14 16:05:46;;;;;;;;;;;;;;;;;;5108563;28;19937;-79
2022/02/14 16:08:13;;;;;;;;;;;;;;;;;;5108005;28;19920;-78
2022/02/14 16:10:38;;;;;;;;;;;;;;;;;;5106820;28;19920;-78
2022/02/14 16:13:04;;;;;;;;;;;;;;;;;;5107242;28;19916;-77
2022/02/14 16:15:29;;;;;;;;;;;;;;;;;;5104512;28;19912;-78
2022/02/14 16:17:54;;;;;;;;;;;;;;;;;;5106342;28;20363;-78
2022/02/14 16:20:20;;;;;;;;;;;;;;;;;;5106459;28;19916;-78
2022/02/14 16:22:47;;;;;;;;;;;;;;;;;;5105222;28;20261;-77
2022/02/14 16:25:15;;;;;;;;;;;;;;;;;;5104272;28;20363;-78
2022/02/14 16:27:42;;;;;;;;;;;;;;;;;;5105054;28;19916;-78
2022/02/14 16:30:08;;;;;;;;;;;;;;;;;;5106969;28;19920;-78
2022/02/14 16:32:34;;;;;;;;;;;;;;;;;;5125141;28;19916;-78
2022/02/14 16:34:59;;;;;;;;;;;;;;;;;;5123409;28;20018;-77
2022/02/14 16:37:26;;;;;;;;;;;;;;;;;;5124360;28;19916;-77
2022/02/14 16:39:55;;;;;;;;;;;;;;;;;;5124385;28;20381;-78
2022/02/14 16:42:21;;;;;;;;;;;;;;;;;;5123829;28;20011;-77
2022/02/14 16:44:46;;;;;;;;;;;;;;;;;;5121684;28;19962;-77
2022/02/14 16:47:11;;;;;;;;;;;;;;;;;;5122753;28;19915;-77